Peconic, New York
Current Conditions -  °F | °C
As of 10:53 PM on Saturday 24 Jan 2015 (Local Time) from KFOK Reporting Station
Clear Clear  
Wind Chill: 25°   Ceiling: Unl
Heat Index: 33°   Visibility: 8mi
Dew Point: 29°   Wind: 10mph
Humidity: 85%   Direction: 280°W
Pressure: 29.42"   Gusts: NA
Location:  41.04°N, 72.46°W
Report Text: KFOK 250353Z 28009KT 8SM CLR 01/M02 A2942 RMK AO2 SLP963 T00061017
Loading
Personal Weather Stations






























Interactive Weather Map New forecast layout! Learn more

10-Day Weather Forecast

Advertisements
Track Severe Weather on mobile